sensor_id;sensor_type;location;lat;lon;timestamp;temperature;humidity
31759;DHT22;36334;51.366;0.020;2022-08-14T00:00:24;20.60;80.40
31759;DHT22;36334;51.366;0.020;2022-08-14T00:03:22;20.50;80.50
31759;DHT22;36334;51.366;0.020;2022-08-14T00:06:14;20.50;81.40
31759;DHT22;36334;51.366;0.020;2022-08-14T00:09:13;20.40;80.90
31759;DHT22;36334;51.366;0.020;2022-08-14T00:12:02;20.40;81.20
31759;DHT22;36334;51.366;0.020;2022-08-14T00:15:22;20.30;81.40
31759;DHT22;36334;51.366;0.020;2022-08-14T00:18:11;20.30;81.80
31759;DHT22;36334;51.366;0.020;2022-08-14T00:20:59;20.20;81.90
31759;DHT22;36334;51.366;0.020;2022-08-14T00:23:55;20.20;82.20
31759;DHT22;36334;51.366;0.020;2022-08-14T00:26:46;20.20;82.30
31759;DHT22;36334;51.366;0.020;2022-08-14T00:29:37;20.10;82.60
31759;DHT22;36334;51.366;0.020;2022-08-14T00:32:25;20.10;82.80
31759;DHT22;36334;51.366;0.020;2022-08-14T00:35:32;20.00;82.80
31759;DHT22;36334;51.366;0.020;2022-08-14T00:38:39;20.00;82.80
31759;DHT22;36334;51.366;0.020;2022-08-14T00:41:34;19.90;83.00
31759;DHT22;36334;51.366;0.020;2022-08-14T00:44:23;19.90;83.50
31759;DHT22;36334;51.366;0.020;2022-08-14T00:47:18;19.90;83.80
31759;DHT22;36334;51.366;0.020;2022-08-14T00:50:06;19.80;84.20
31759;DHT22;36334;51.366;0.020;2022-08-14T00:53:03;19.80;84.60
31759;DHT22;36334;51.366;0.020;2022-08-14T00:55:55;19.80;85.00
31759;DHT22;36334;51.366;0.020;2022-08-14T00:58:42;19.80;85.40
31759;DHT22;36334;51.366;0.020;2022-08-14T01:01:33;19.70;85.70
31759;DHT22;36334;51.366;0.020;2022-08-14T01:04:23;19.70;86.20
31759;DHT22;36334;51.366;0.020;2022-08-14T01:07:29;19.60;86.40
31759;DHT22;36334;51.366;0.020;2022-08-14T01:10:23;19.60;86.70
31759;DHT22;36334;51.366;0.020;2022-08-14T01:13:33;19.50;86.90
31759;DHT22;36334;51.366;0.020;2022-08-14T01:16:28;19.50;86.80
31759;DHT22;36334;51.366;0.020;2022-08-14T01:19:16;19.40;87.10
31759;DHT22;36334;51.366;0.020;2022-08-14T01:22:21;19.40;87.60
31759;DHT22;36334;51.366;0.020;2022-08-14T01:25:11;19.30;87.70
31759;DHT22;36334;51.366;0.020;2022-08-14T01:27:59;19.30;87.50
31759;DHT22;36334;51.366;0.020;2022-08-14T01:30:45;19.30;87.30
31759;DHT22;36334;51.366;0.020;2022-08-14T01:33:32;19.20;87.10
31759;DHT22;36334;51.366;0.020;2022-08-14T01:36:38;19.20;86.90
31759;DHT22;36334;51.366;0.020;2022-08-14T01:39:24;19.20;86.70
31759;DHT22;36334;51.366;0.020;2022-08-14T01:42:10;19.10;86.60
31759;DHT22;36334;51.366;0.020;2022-08-14T01:45:16;19.10;86.50
31759;DHT22;36334;51.366;0.020;2022-08-14T01:48:10;19.00;86.30
31759;DHT22;36334;51.366;0.020;2022-08-14T01:50:59;19.00;86.10
31759;DHT22;36334;51.366;0.020;2022-08-14T01:54:00;18.90;86.00
31759;DHT22;36334;51.366;0.020;2022-08-14T01:56:53;18.90;86.60
31759;DHT22;36334;51.366;0.020;2022-08-14T01:59:44;18.90;86.00
31759;DHT22;36334;51.366;0.020;2022-08-14T02:02:30;18.80;86.00
31759;DHT22;36334;51.366;0.020;2022-08-14T02:05:24;18.80;86.10
31759;DHT22;36334;51.366;0.020;2022-08-14T02:08:19;18.80;86.30
31759;DHT22;36334;51.366;0.020;2022-08-14T02:11:20;18.70;86.40
31759;DHT22;36334;51.366;0.020;2022-08-14T02:14:16;18.70;86.60
31759;DHT22;36334;51.366;0.020;2022-08-14T02:17:16;18.60;86.70
31759;DHT22;36334;51.366;0.020;2022-08-14T02:20:07;18.50;86.70
31759;DHT22;36334;51.366;0.020;2022-08-14T02:22:54;18.50;86.70
31759;DHT22;36334;51.366;0.020;2022-08-14T02:25:46;18.40;86.90
31759;DHT22;36334;51.366;0.020;2022-08-14T02:28:39;18.40;87.10
31759;DHT22;36334;51.366;0.020;2022-08-14T02:31:46;18.40;87.10
31759;DHT22;36334;51.366;0.020;2022-08-14T02:34:35;18.40;87.30
31759;DHT22;36334;51.366;0.020;2022-08-14T02:37:26;18.30;87.50
31759;DHT22;36334;51.366;0.020;2022-08-14T02:40:32;18.30;87.70
31759;DHT22;36334;51.366;0.020;2022-08-14T02:43:20;18.30;88.00
31759;DHT22;36334;51.366;0.020;2022-08-14T02:46:08;18.30;88.20
31759;DHT22;36334;51.366;0.020;2022-08-14T02:48:57;18.20;88.30
31759;DHT22;36334;51.366;0.020;2022-08-14T02:51:49;18.20;88.40
31759;DHT22;36334;51.366;0.020;2022-08-14T02:54:37;18.20;88.50
31759;DHT22;36334;51.366;0.020;2022-08-14T02:57:26;18.20;88.60
31759;DHT22;36334;51.366;0.020;2022-08-14T03:00:26;18.10;88.70
31759;DHT22;36334;51.366;0.020;2022-08-14T03:03:12;18.10;88.80
31759;DHT22;36334;51.366;0.020;2022-08-14T03:05:58;18.10;89.00
31759;DHT22;36334;51.366;0.020;2022-08-14T03:08:46;18.00;89.10
31759;DHT22;36334;51.366;0.020;2022-08-14T03:11:34;18.00;89.20
31759;DHT22;36334;51.366;0.020;2022-08-14T03:14:24;17.90;89.20
31759;DHT22;36334;51.366;0.020;2022-08-14T03:17:12;17.90;89.30
31759;DHT22;36334;51.366;0.020;2022-08-14T03:20:02;17.80;89.20
31759;DHT22;36334;51.366;0.020;2022-08-14T03:22:56;17.80;89.40
31759;DHT22;36334;51.366;0.020;2022-08-14T03:25:49;17.80;89.60
31759;DHT22;36334;51.366;0.020;2022-08-14T03:28:36;17.70;89.50
31759;DHT22;36334;51.366;0.020;2022-08-14T03:31:27;17.70;89.90
31759;DHT22;36334;51.366;0.020;2022-08-14T03:34:15;17.70;90.00
31759;DHT22;36334;51.366;0.020;2022-08-14T03:37:21;17.70;90.10
31759;DHT22;36334;51.366;0.020;2022-08-14T03:40:27;17.70;90.20
31759;DHT22;36334;51.366;0.020;2022-08-14T03:43:14;17.60;90.30
31759;DHT22;36334;51.366;0.020;2022-08-14T03:46:01;17.60;90.40
31759;DHT22;36334;51.366;0.020;2022-08-14T03:48:55;17.60;90.40
31759;DHT22;36334;51.366;0.020;2022-08-14T03:51:41;17.50;90.50
31759;DHT22;36334;51.366;0.020;2022-08-14T03:54:29;17.50;90.40
31759;DHT22;36334;51.366;0.020;2022-08-14T03:57:15;17.50;90.80
31759;DHT22;36334;51.366;0.020;2022-08-14T04:00:05;17.50;90.60
31759;DHT22;36334;51.366;0.020;2022-08-14T04:03:14;17.40;90.70
31759;DHT22;36334;51.366;0.020;2022-08-14T04:06:09;17.40;90.70
31759;DHT22;36334;51.366;0.020;2022-08-14T04:09:06;17.30;90.70
31759;DHT22;36334;51.366;0.020;2022-08-14T04:11:54;17.30;90.80
31759;DHT22;36334;51.366;0.020;2022-08-14T04:14:41;17.20;90.90
31759;DHT22;36334;51.366;0.020;2022-08-14T04:17:31;17.10;91.00
31759;DHT22;36334;51.366;0.020;2022-08-14T04:20:19;17.10;91.20
31759;DHT22;36334;51.366;0.020;2022-08-14T04:23:12;17.10;91.30
31759;DHT22;36334;51.366;0.020;2022-08-14T04:26:11;17.00;91.40
31759;DHT22;36334;51.366;0.020;2022-08-14T04:28:59;17.00;91.50
31759;DHT22;36334;51.366;0.020;2022-08-14T04:31:59;17.00;91.70
31759;DHT22;36334;51.366;0.020;2022-08-14T04:35:05;17.00;91.80
31759;DHT22;36334;51.366;0.020;2022-08-14T04:37:55;17.00;91.80
31759;DHT22;36334;51.366;0.020;2022-08-14T04:41:20;17.00;92.00
31759;DHT22;36334;51.366;0.020;2022-08-14T04:44:29;17.00;92.10
31759;DHT22;36334;51.366;0.020;2022-08-14T04:47:22;17.00;92.10
31759;DHT22;36334;51.366;0.020;2022-08-14T04:50:31;16.90;92.00
31759;DHT22;36334;51.366;0.020;2022-08-14T04:53:30;16.90;92.10
31759;DHT22;36334;51.366;0.020;2022-08-14T04:56:23;16.90;92.10
31759;DHT22;36334;51.366;0.020;2022-08-14T04:59:19;16.90;92.10
31759;DHT22;36334;51.366;0.020;2022-08-14T05:02:06;16.80;92.20
31759;DHT22;36334;51.366;0.020;2022-08-14T05:04:52;16.80;92.30
31759;DHT22;36334;51.366;0.020;2022-08-14T05:07:43;16.80;92.50
31759;DHT22;36334;51.366;0.020;2022-08-14T05:10:56;16.70;92.60
31759;DHT22;36334;51.366;0.020;2022-08-14T05:13:45;16.70;92.80
31759;DHT22;36334;51.366;0.020;2022-08-14T05:16:51;16.70;92.80
31759;DHT22;36334;51.366;0.020;2022-08-14T05:19:38;16.70;92.90
31759;DHT22;36334;51.366;0.020;2022-08-14T05:22:45;16.70;93.00
31759;DHT22;36334;51.366;0.020;2022-08-14T05:25:45;16.70;93.10
31759;DHT22;36334;51.366;0.020;2022-08-14T05:28:39;16.70;93.30
31759;DHT22;36334;51.366;0.020;2022-08-14T05:31:26;16.70;93.40
31759;DHT22;36334;51.366;0.020;2022-08-14T05:34:25;16.80;93.50
31759;DHT22;36334;51.366;0.020;2022-08-14T05:37:16;16.80;93.60
31759;DHT22;36334;51.366;0.020;2022-08-14T05:40:04;16.80;93.80
31759;DHT22;36334;51.366;0.020;2022-08-14T05:42:51;16.90;93.90
31759;DHT22;36334;51.366;0.020;2022-08-14T05:45:41;16.90;94.10
31759;DHT22;36334;51.366;0.020;2022-08-14T05:48:29;16.90;94.20
31759;DHT22;36334;51.366;0.020;2022-08-14T05:51:27;16.90;94.40
31759;DHT22;36334;51.366;0.020;2022-08-14T05:54:15;17.00;94.50
31759;DHT22;36334;51.366;0.020;2022-08-14T05:57:11;17.20;94.60
31759;DHT22;36334;51.366;0.020;2022-08-14T05:59:58;17.20;94.70
31759;DHT22;36334;51.366;0.020;2022-08-14T06:02:45;17.30;94.90
31759;DHT22;36334;51.366;0.020;2022-08-14T06:05:32;17.40;95.00
31759;DHT22;36334;51.366;0.020;2022-08-14T06:08:22;17.50;95.20
31759;DHT22;36334;51.366;0.020;2022-08-14T06:11:21;17.60;95.40
31759;DHT22;36334;51.366;0.020;2022-08-14T06:14:16;17.80;95.60
31759;DHT22;36334;51.366;0.020;2022-08-14T06:17:06;18.00;95.80
31759;DHT22;36334;51.366;0.020;2022-08-14T06:19:52;18.00;95.80
31759;DHT22;36334;51.366;0.020;2022-08-14T06:22:42;18.20;96.00
31759;DHT22;36334;51.366;0.020;2022-08-14T06:25:30;18.30;96.10
31759;DHT22;36334;51.366;0.020;2022-08-14T06:28:22;18.40;96.30
31759;DHT22;36334;51.366;0.020;2022-08-14T06:31:13;18.60;96.50
31759;DHT22;36334;51.366;0.020;2022-08-14T06:34:00;18.70;96.70
31759;DHT22;36334;51.366;0.020;2022-08-14T06:37:07;18.80;96.90
31759;DHT22;36334;51.366;0.020;2022-08-14T06:39:54;19.00;97.10
31759;DHT22;36334;51.366;0.020;2022-08-14T06:42:41;19.10;97.30
31759;DHT22;36334;51.366;0.020;2022-08-14T06:45:27;19.20;97.60
31759;DHT22;36334;51.366;0.020;2022-08-14T06:48:23;19.30;97.80
31759;DHT22;36334;51.366;0.020;2022-08-14T06:51:09;19.50;98.20
31759;DHT22;36334;51.366;0.020;2022-08-14T06:53:56;19.60;98.50
31759;DHT22;36334;51.366;0.020;2022-08-14T06:56:43;19.70;98.90
31759;DHT22;36334;51.366;0.020;2022-08-14T06:59:40;19.80;99.30
31759;DHT22;36334;51.366;0.020;2022-08-14T07:02:26;19.90;99.60
31759;DHT22;36334;51.366;0.020;2022-08-14T07:05:33;20.10;99.90
31759;DHT22;36334;51.366;0.020;2022-08-14T07:08:43;20.20;99.90
31759;DHT22;36334;51.366;0.020;2022-08-14T07:11:33;20.30;99.90
31759;DHT22;36334;51.366;0.020;2022-08-14T07:14:20;20.40;99.90
31759;DHT22;36334;51.366;0.020;2022-08-14T07:17:07;20.50;99.90
31759;DHT22;36334;51.366;0.020;2022-08-14T07:19:54;20.70;99.90
31759;DHT22;36334;51.366;0.020;2022-08-14T07:22:42;20.80;99.90
31759;DHT22;36334;51.366;0.020;2022-08-14T07:25:49;20.90;99.90
31759;DHT22;36334;51.366;0.020;2022-08-14T07:28:38;21.00;99.90
31759;DHT22;36334;51.366;0.020;2022-08-14T07:31:28;21.10;99.90
31759;DHT22;36334;51.366;0.020;2022-08-14T07:34:15;21.30;99.90
31759;DHT22;36334;51.366;0.020;2022-08-14T07:37:21;21.40;99.90
31759;DHT22;36334;51.366;0.020;2022-08-14T07:40:07;21.50;99.90
31759;DHT22;36334;51.366;0.020;2022-08-14T07:42:56;21.60;99.90
31759;DHT22;36334;51.366;0.020;2022-08-14T07:45:59;21.60;99.90
31759;DHT22;36334;51.366;0.020;2022-08-14T07:48:48;21.80;99.90
31759;DHT22;36334;51.366;0.020;2022-08-14T07:51:38;21.90;99.90
31759;DHT22;36334;51.366;0.020;2022-08-14T07:54:24;22.00;99.90
31759;DHT22;36334;51.366;0.020;2022-08-14T07:57:15;22.10;99.90
31759;DHT22;36334;51.366;0.020;2022-08-14T08:00:18;22.20;99.90
31759;DHT22;36334;51.366;0.020;2022-08-14T08:03:18;22.30;99.90
31759;DHT22;36334;51.366;0.020;2022-08-14T08:06:08;22.40;99.90
31759;DHT22;36334;51.366;0.020;2022-08-14T08:09:03;22.60;99.90
31759;DHT22;36334;51.366;0.020;2022-08-14T08:11:50;22.70;99.90
31759;DHT22;36334;51.366;0.020;2022-08-14T08:14:42;22.80;99.90
31759;DHT22;36334;51.366;0.020;2022-08-14T08:17:47;22.90;99.90
31759;DHT22;36334;51.366;0.020;2022-08-14T08:20:44;23.00;99.90
31759;DHT22;36334;51.366;0.020;2022-08-14T08:23:38;23.10;99.90
31759;DHT22;36334;51.366;0.020;2022-08-14T08:26:36;23.20;99.60
31759;DHT22;36334;51.366;0.020;2022-08-14T08:29:23;23.30;99.30
31759;DHT22;36334;51.366;0.020;2022-08-14T08:32:14;23.40;99.00
31759;DHT22;36334;51.366;0.020;2022-08-14T08:35:01;23.50;98.60
31759;DHT22;36334;51.366;0.020;2022-08-14T08:37:49;23.50;98.20
31759;DHT22;36334;51.366;0.020;2022-08-14T08:40:47;23.60;97.90
31759;DHT22;36334;51.366;0.020;2022-08-14T08:43:35;23.70;97.60
31759;DHT22;36334;51.366;0.020;2022-08-14T08:46:23;23.80;97.20
31759;DHT22;36334;51.366;0.020;2022-08-14T08:49:12;23.80;96.90
31759;DHT22;36334;51.366;0.020;2022-08-14T08:52:03;23.90;96.70
31759;DHT22;36334;51.366;0.020;2022-08-14T08:54:53;24.00;96.30
31759;DHT22;36334;51.366;0.020;2022-08-14T08:57:39;24.10;96.00
31759;DHT22;36334;51.366;0.020;2022-08-14T09:00:27;24.20;95.70
31759;DHT22;36334;51.366;0.020;2022-08-14T09:03:18;24.30;95.50
31759;DHT22;36334;51.366;0.020;2022-08-14T09:06:06;24.40;95.20
31759;DHT22;36334;51.366;0.020;2022-08-14T09:12:07;24.60;94.60
31759;DHT22;36334;51.366;0.020;2022-08-14T09:15:01;24.70;94.20
31759;DHT22;36334;51.366;0.020;2022-08-14T09:17:58;24.80;93.90
31759;DHT22;36334;51.366;0.020;2022-08-14T09:20:47;24.90;93.50
31759;DHT22;36334;51.366;0.020;2022-08-14T09:23:35;25.10;93.20
31759;DHT22;36334;51.366;0.020;2022-08-14T09:26:43;25.20;92.80
31759;DHT22;36334;51.366;0.020;2022-08-14T09:29:34;25.30;92.50
31759;DHT22;36334;51.366;0.020;2022-08-14T09:32:29;25.40;92.30
31759;DHT22;36334;51.366;0.020;2022-08-14T09:39:02;25.80;91.60
31759;DHT22;36334;51.366;0.020;2022-08-14T09:45:22;26.20;90.40
31759;DHT22;36334;51.366;0.020;2022-08-14T09:48:20;26.30;89.60
31759;DHT22;36334;51.366;0.020;2022-08-14T09:51:23;26.50;88.40
31759;DHT22;36334;51.366;0.020;2022-08-14T09:54:18;26.70;87.00
31759;DHT22;36334;51.366;0.020;2022-08-14T09:57:10;26.80;85.60
31759;DHT22;36334;51.366;0.020;2022-08-14T10:00:09;27.00;84.30
31759;DHT22;36334;51.366;0.020;2022-08-14T10:03:35;27.10;82.90
31759;DHT22;36334;51.366;0.020;2022-08-14T10:06:24;27.20;82.50
31759;DHT22;36334;51.366;0.020;2022-08-14T10:09:14;27.30;81.50
31759;DHT22;36334;51.366;0.020;2022-08-14T10:12:02;27.40;81.30
31759;DHT22;36334;51.366;0.020;2022-08-14T10:14:50;27.40;81.20
31759;DHT22;36334;51.366;0.020;2022-08-14T10:17:38;27.50;81.40
31759;DHT22;36334;51.366;0.020;2022-08-14T10:20:41;27.60;82.10
31759;DHT22;36334;51.366;0.020;2022-08-14T10:23:40;27.60;82.90
31759;DHT22;36334;51.366;0.020;2022-08-14T10:26:28;27.60;83.40
31759;DHT22;36334;51.366;0.020;2022-08-14T10:29:15;27.60;83.70
31759;DHT22;36334;51.366;0.020;2022-08-14T10:32:07;27.70;83.50
31759;DHT22;36334;51.366;0.020;2022-08-14T10:35:08;27.70;83.50
31759;DHT22;36334;51.366;0.020;2022-08-14T10:38:00;27.80;83.30
31759;DHT22;36334;51.366;0.020;2022-08-14T10:40:46;27.80;82.80
31759;DHT22;36334;51.366;0.020;2022-08-14T10:44:03;27.90;82.60
31759;DHT22;36334;51.366;0.020;2022-08-14T10:46:51;28.00;82.60
31759;DHT22;36334;51.366;0.020;2022-08-14T10:49:59;28.00;80.90
31759;DHT22;36334;51.366;0.020;2022-08-14T10:52:56;28.10;79.30
31759;DHT22;36334;51.366;0.020;2022-08-14T10:55:47;28.20;77.90
31759;DHT22;36334;51.366;0.020;2022-08-14T10:58:36;28.30;76.80
31759;DHT22;36334;51.366;0.020;2022-08-14T11:01:30;28.40;75.40
31759;DHT22;36334;51.366;0.020;2022-08-14T11:04:23;28.40;74.10
31759;DHT22;36334;51.366;0.020;2022-08-14T11:07:13;28.50;73.20
31759;DHT22;36334;51.366;0.020;2022-08-14T11:10:09;28.60;72.30
31759;DHT22;36334;51.366;0.020;2022-08-14T11:12:58;28.70;71.20
31759;DHT22;36334;51.366;0.020;2022-08-14T11:15:56;28.70;70.50
31759;DHT22;36334;51.366;0.020;2022-08-14T11:18:47;28.70;69.70
31759;DHT22;36334;51.366;0.020;2022-08-14T11:21:41;28.80;68.80
31759;DHT22;36334;51.366;0.020;2022-08-14T11:24:35;28.80;68.40
31759;DHT22;36334;51.366;0.020;2022-08-14T11:27:45;28.80;68.10
31759;DHT22;36334;51.366;0.020;2022-08-14T11:30:34;28.80;67.40
31759;DHT22;36334;51.366;0.020;2022-08-14T11:33:37;28.90;67.30
31759;DHT22;36334;51.366;0.020;2022-08-14T11:36:27;28.90;66.90
31759;DHT22;36334;51.366;0.020;2022-08-14T11:39:34;29.00;66.60
31759;DHT22;36334;51.366;0.020;2022-08-14T11:42:24;29.10;66.20
31759;DHT22;36334;51.366;0.020;2022-08-14T11:45:32;29.30;65.50
31759;DHT22;36334;51.366;0.020;2022-08-14T11:48:24;29.50;65.10
31759;DHT22;36334;51.366;0.020;2022-08-14T11:51:30;29.70;64.30
31759;DHT22;36334;51.366;0.020;2022-08-14T11:54:37;29.90;63.50
31759;DHT22;36334;51.366;0.020;2022-08-14T11:57:24;30.10;62.40
31759;DHT22;36334;51.366;0.020;2022-08-14T12:00:15;30.20;61.50
31759;DHT22;36334;51.366;0.020;2022-08-14T12:03:05;30.40;60.90
31759;DHT22;36334;51.366;0.020;2022-08-14T12:05:51;30.50;60.60
31759;DHT22;36334;51.366;0.020;2022-08-14T12:08:49;30.70;60.10
31759;DHT22;36334;51.366;0.020;2022-08-14T12:11:44;30.90;59.70
31759;DHT22;36334;51.366;0.020;2022-08-14T12:14:32;31.00;59.30
31759;DHT22;36334;51.366;0.020;2022-08-14T12:17:30;31.10;59.10
31759;DHT22;36334;51.366;0.020;2022-08-14T12:20:36;31.20;59.00
31759;DHT22;36334;51.366;0.020;2022-08-14T12:23:31;31.30;58.60
31759;DHT22;36334;51.366;0.020;2022-08-14T12:26:18;31.50;58.20
31759;DHT22;36334;51.366;0.020;2022-08-14T12:29:25;31.60;57.80
31759;DHT22;36334;51.366;0.020;2022-08-14T12:32:12;31.70;57.50
31759;DHT22;36334;51.366;0.020;2022-08-14T12:34:58;31.80;57.20
31759;DHT22;36334;51.366;0.020;2022-08-14T12:37:48;31.80;57.00
31759;DHT22;36334;51.366;0.020;2022-08-14T12:43:32;31.90;56.60
31759;DHT22;36334;51.366;0.020;2022-08-14T12:49:16;32.10;55.20
31759;DHT22;36334;51.366;0.020;2022-08-14T12:52:04;32.00;55.40
31759;DHT22;36334;51.366;0.020;2022-08-14T12:57:57;32.00;55.20
31759;DHT22;36334;51.366;0.020;2022-08-14T13:00:51;32.00;55.30
31759;DHT22;36334;51.366;0.020;2022-08-14T13:04:16;32.00;55.20
31759;DHT22;36334;51.366;0.020;2022-08-14T13:07:04;32.00;55.10
31759;DHT22;36334;51.366;0.020;2022-08-14T13:09:56;32.10;55.10
31759;DHT22;36334;51.366;0.020;2022-08-14T13:13:05;32.10;54.60
31759;DHT22;36334;51.366;0.020;2022-08-14T13:16:05;32.20;54.40
31759;DHT22;36334;51.366;0.020;2022-08-14T13:19:16;32.20;53.70
31759;DHT22;36334;51.366;0.020;2022-08-14T13:22:05;32.30;53.20
31759;DHT22;36334;51.366;0.020;2022-08-14T13:25:05;32.30;53.60
31759;DHT22;36334;51.366;0.020;2022-08-14T13:27:54;32.40;53.50
31759;DHT22;36334;51.366;0.020;2022-08-14T13:30:44;32.50;53.10
31759;DHT22;36334;51.366;0.020;2022-08-14T13:33:32;32.70;53.20
31759;DHT22;36334;51.366;0.020;2022-08-14T13:36:20;32.80;53.10
31759;DHT22;36334;51.366;0.020;2022-08-14T13:39:27;33.00;52.70
31759;DHT22;36334;51.366;0.020;2022-08-14T13:42:16;33.10;52.30
31759;DHT22;36334;51.366;0.020;2022-08-14T13:45:03;33.20;51.80
31759;DHT22;36334;51.366;0.020;2022-08-14T13:47:51;33.40;51.70
31759;DHT22;36334;51.366;0.020;2022-08-14T13:50:44;33.50;51.50
31759;DHT22;36334;51.366;0.020;2022-08-14T13:53:32;33.70;51.00
31759;DHT22;36334;51.366;0.020;2022-08-14T13:56:27;33.80;50.80
31759;DHT22;36334;51.366;0.020;2022-08-14T13:59:23;33.90;51.20
31759;DHT22;36334;51.366;0.020;2022-08-14T14:02:24;33.90;50.40
31759;DHT22;36334;51.366;0.020;2022-08-14T14:05:19;34.00;51.10
31759;DHT22;36334;51.366;0.020;2022-08-14T14:08:05;34.00;50.70
31759;DHT22;36334;51.366;0.020;2022-08-14T14:11:16;34.10;50.50
31759;DHT22;36334;51.366;0.020;2022-08-14T14:14:09;34.10;50.40
31759;DHT22;36334;51.366;0.020;2022-08-14T14:17:18;34.10;50.10
31759;DHT22;36334;51.366;0.020;2022-08-14T14:20:12;34.10;50.40
31759;DHT22;36334;51.366;0.020;2022-08-14T14:23:19;34.10;50.30
31759;DHT22;36334;51.366;0.020;2022-08-14T14:26:06;34.10;50.20
31759;DHT22;36334;51.366;0.020;2022-08-14T14:28:59;34.20;50.10
31759;DHT22;36334;51.366;0.020;2022-08-14T14:31:47;34.20;50.00
31759;DHT22;36334;51.366;0.020;2022-08-14T14:34:37;34.20;49.80
31759;DHT22;36334;51.366;0.020;2022-08-14T14:37:25;34.10;49.40
31759;DHT22;36334;51.366;0.020;2022-08-14T14:40:13;34.00;49.70
31759;DHT22;36334;51.366;0.020;2022-08-14T14:43:20;33.90;50.10
31759;DHT22;36334;51.366;0.020;2022-08-14T14:46:09;33.90;50.40
31759;DHT22;36334;51.366;0.020;2022-08-14T14:49:02;33.80;50.60
31759;DHT22;36334;51.366;0.020;2022-08-14T14:51:49;33.80;50.50
31759;DHT22;36334;51.366;0.020;2022-08-14T14:54:37;33.70;50.40
31759;DHT22;36334;51.366;0.020;2022-08-14T14:57:28;33.70;50.60
31759;DHT22;36334;51.366;0.020;2022-08-14T15:00:23;33.70;50.70
31759;DHT22;36334;51.366;0.020;2022-08-14T15:03:16;33.70;50.80
31759;DHT22;36334;51.366;0.020;2022-08-14T15:06:02;33.70;50.80
31759;DHT22;36334;51.366;0.020;2022-08-14T15:08:50;33.70;50.60
31759;DHT22;36334;51.366;0.020;2022-08-14T15:11:44;33.90;50.50
31759;DHT22;36334;51.366;0.020;2022-08-14T15:14:32;34.20;50.40
31759;DHT22;36334;51.366;0.020;2022-08-14T15:17:39;34.50;50.40
31759;DHT22;36334;51.366;0.020;2022-08-14T15:20:27;34.90;50.20
31759;DHT22;36334;51.366;0.020;2022-08-14T15:23:15;35.50;49.70
31759;DHT22;36334;51.366;0.020;2022-08-14T15:26:07;36.10;49.40
31759;DHT22;36334;51.366;0.020;2022-08-14T15:28:54;36.50;49.30
31759;DHT22;36334;51.366;0.020;2022-08-14T15:31:49;36.70;49.00
31759;DHT22;36334;51.366;0.020;2022-08-14T15:34:39;36.70;49.20
31759;DHT22;36334;51.366;0.020;2022-08-14T15:37:39;36.50;49.10
31759;DHT22;36334;51.366;0.020;2022-08-14T15:40:27;36.30;49.00
31759;DHT22;36334;51.366;0.020;2022-08-14T15:43:14;36.10;49.20
31759;DHT22;36334;51.366;0.020;2022-08-14T15:46:07;35.70;49.10
31759;DHT22;36334;51.366;0.020;2022-08-14T15:49:13;35.30;48.80
31759;DHT22;36334;51.366;0.020;2022-08-14T15:52:00;34.80;48.90
31759;DHT22;36334;51.366;0.020;2022-08-14T15:54:48;34.40;49.30
31759;DHT22;36334;51.366;0.020;2022-08-14T15:57:36;34.00;49.70
31759;DHT22;36334;51.366;0.020;2022-08-14T16:00:23;33.70;50.20
31759;DHT22;36334;51.366;0.020;2022-08-14T16:03:35;33.40;50.50
31759;DHT22;36334;51.366;0.020;2022-08-14T16:06:27;33.10;50.80
31759;DHT22;36334;51.366;0.020;2022-08-14T16:09:17;32.70;51.10
31759;DHT22;36334;51.366;0.020;2022-08-14T16:12:06;32.40;51.50
31759;DHT22;36334;51.366;0.020;2022-08-14T16:14:54;32.30;51.90
31759;DHT22;36334;51.366;0.020;2022-08-14T16:17:41;32.10;52.20
31759;DHT22;36334;51.366;0.020;2022-08-14T16:20:29;32.10;52.50
31759;DHT22;36334;51.366;0.020;2022-08-14T16:23:27;32.20;53.20
31759;DHT22;36334;51.366;0.020;2022-08-14T16:26:22;32.40;52.70
31759;DHT22;36334;51.366;0.020;2022-08-14T16:29:15;33.00;52.80
31759;DHT22;36334;51.366;0.020;2022-08-14T16:32:04;33.70;52.50
31759;DHT22;36334;51.366;0.020;2022-08-14T16:35:14;34.30;51.90
31759;DHT22;36334;51.366;0.020;2022-08-14T16:38:03;34.70;51.70
31759;DHT22;36334;51.366;0.020;2022-08-14T16:41:10;34.90;51.60
31759;DHT22;36334;51.366;0.020;2022-08-14T16:44:08;35.20;51.60
31759;DHT22;36334;51.366;0.020;2022-08-14T16:47:18;35.20;51.60
31759;DHT22;36334;51.366;0.020;2022-08-14T16:50:08;35.00;51.60
31759;DHT22;36334;51.366;0.020;2022-08-14T16:52:56;34.70;51.70
31759;DHT22;36334;51.366;0.020;2022-08-14T16:55:49;34.30;51.90
31759;DHT22;36334;51.366;0.020;2022-08-14T16:59:20;34.00;52.20
31759;DHT22;36334;51.366;0.020;2022-08-14T17:02:38;33.50;52.40
31759;DHT22;36334;51.366;0.020;2022-08-14T17:05:25;33.10;52.90
31759;DHT22;36334;51.366;0.020;2022-08-14T17:08:19;32.70;53.10
31759;DHT22;36334;51.366;0.020;2022-08-14T17:11:28;32.40;53.30
31759;DHT22;36334;51.366;0.020;2022-08-14T17:14:17;32.10;53.40
31759;DHT22;36334;51.366;0.020;2022-08-14T17:17:04;31.80;53.30
31759;DHT22;36334;51.366;0.020;2022-08-14T17:20:01;31.60;53.30
31759;DHT22;36334;51.366;0.020;2022-08-14T17:23:07;31.50;53.40
31759;DHT22;36334;51.366;0.020;2022-08-14T17:25:55;31.30;53.50
31759;DHT22;36334;51.366;0.020;2022-08-14T17:28:42;31.20;53.50
31759;DHT22;36334;51.366;0.020;2022-08-14T17:31:39;31.10;53.70
31759;DHT22;36334;51.366;0.020;2022-08-14T17:34:51;31.10;53.60
31759;DHT22;36334;51.366;0.020;2022-08-14T17:37:41;31.00;53.50
31759;DHT22;36334;51.366;0.020;2022-08-14T17:40:30;30.90;53.50
31759;DHT22;36334;51.366;0.020;2022-08-14T17:43:17;30.90;53.40
31759;DHT22;36334;51.366;0.020;2022-08-14T17:46:03;30.80;53.30
31759;DHT22;36334;51.366;0.020;2022-08-14T17:49:05;30.70;53.30
31759;DHT22;36334;51.366;0.020;2022-08-14T17:52:05;30.60;53.40
31759;DHT22;36334;51.366;0.020;2022-08-14T17:55:05;30.50;53.70
31759;DHT22;36334;51.366;0.020;2022-08-14T17:57:52;30.40;53.80
31759;DHT22;36334;51.366;0.020;2022-08-14T18:00:40;30.20;53.60
31759;DHT22;36334;51.366;0.020;2022-08-14T18:03:29;30.10;53.50
31759;DHT22;36334;51.366;0.020;2022-08-14T18:06:36;29.90;53.60
31759;DHT22;36334;51.366;0.020;2022-08-14T18:09:45;29.80;53.90
31759;DHT22;36334;51.366;0.020;2022-08-14T18:12:44;29.70;54.20
31759;DHT22;36334;51.366;0.020;2022-08-14T18:15:31;29.50;54.40
31759;DHT22;36334;51.366;0.020;2022-08-14T18:18:22;29.40;54.60
31759;DHT22;36334;51.366;0.020;2022-08-14T18:21:09;29.30;54.90
31759;DHT22;36334;51.366;0.020;2022-08-14T18:24:15;29.10;55.40
31759;DHT22;36334;51.366;0.020;2022-08-14T18:27:17;29.00;55.80
31759;DHT22;36334;51.366;0.020;2022-08-14T18:30:09;28.80;55.90
31759;DHT22;36334;51.366;0.020;2022-08-14T18:33:18;28.60;56.90
31759;DHT22;36334;51.366;0.020;2022-08-14T18:36:06;28.40;56.50